Flight Track Log - Related Links

Times and Time Zones

All times are in EDT time to prevent confusion due to time zone crossing. See the N3TN flight status page for this flight to view local times or setup timezone preferences in your user account.

Time Position Orientation Groundspeed Altitude Reporting Facility
EDT Latitude Longitude Course Direction KTS MPH feet Rate Location/Type
Tue 05:46:38 PM 43.3944 -76.2836 61° Northeast 101 116 2,500  Level Boston Center
Tue 05:47:38 PM 43.4081 -76.2503 61° Northeast 94 108 2,900 446 Climbing Boston Center
Tue 05:48:39 PM 43.4217 -76.2197 58° Northeast 95 109 3,400 541 Climbing Boston Center
Tue 05:49:40 PM 43.4331 -76.1917 61° Northeast 90 104 4,000 526 Climbing Boston Center
Tue 05:50:33 PM 43.4386 -76.1464 80° East 89 102 4,400 390 Climbing Boston Center
Tue 05:50:57 PM 43.4431 -76.1350 62° Northeast 94 108 4,500 353 Climbing Boston Center
Tue 05:51:58 PM 43.4589 -76.0989 59° Northeast 100 115 4,900 393 Climbing Boston Center
Tue 05:52:59 PM 43.4703 -76.0653 65° Northeast 96 110 5,300 397 Climbing Boston Center
Tue 05:53:59 PM 43.4858 -76.0347 55° Northeast 95 109 5,700 397 Climbing Boston Center
Tue 05:55:00 PM 43.4972 -76.0039 63° Northeast 96 110 6,100 393 Climbing Boston Center
Tue 05:56:01 PM 43.5108 -75.9731 59° Northeast 99 114 6,500 347 Climbing Boston Center
Tue 05:57:01 PM 43.5247 -75.9311 65° Northeast 102 117 6,800 298 Climbing Boston Center
Tue 05:58:02 PM 43.5381 -75.8975 61° Northeast 105 121 7,100 148 Climbing Boston Center
Tue 05:59:03 PM 43.5581 -75.8614 53° Northeast 117 135 7,100  Level Boston Center
Tue 05:59:57 PM 43.5736 -75.8250 59° Northeast 129 148 7,100  Level Boston Center
Tue 06:00:58 PM 43.5897 -75.7797 64° Northeast 121 139 7,100  Level Boston Center
Tue 06:01:58 PM 43.6033 -75.7406 64° Northeast 119 137 7,100  Level Boston Center
Tue 06:02:59 PM 43.6211 -75.6983 60° Northeast 124 143 7,100  Level Boston Center
Tue 06:04:00 PM 43.6408 -75.6622 53° Northeast 119 137 7,100 -50 Level Boston Center
Tue 06:05:00 PM 43.6506 -75.6197 72° East 118 136 7,000 -50 Descending Boston Center
Tue 06:06:01 PM 43.6642 -75.5744 67° East 122 140 7,000  Level Boston Center
Tue 06:07:02 PM 43.6756 -75.5347 68° East 120 138 7,000  Level Boston Center
Tue 06:08:02 PM 43.6894 -75.4894 67° East 121 139 7,000  Level Boston Center
Tue 06:09:03 PM 43.7053 -75.4444 64° Northeast 121 139 7,000 49 Level Boston Center
Tue 06:10:04 PM 43.7167 -75.4047 68° East 119 137 7,100 50 Climbing Boston Center
Tue 06:11:04 PM 43.7325 -75.3594 64° Northeast 120 138 7,100  Level Boston Center
Tue 06:12:05 PM 43.7461 -75.3172 66° East 121 139 7,100  Level Boston Center
Tue 06:12:38 PM 43.7483 -75.3028 78° East 118 136 7,100  Level Boston Center
Tue 06:13:05 PM 43.7617 -75.2775 54° Northeast 122 140 7,100  Level Boston Center
Tue 06:13:38 PM 43.7619 -75.2603 89° East 118 136 7,100  Level Boston Center
Tue 06:14:06 PM 43.7772 -75.2322 53° Northeast 122 140 7,100  Level Boston Center
Tue 06:14:38 PM 43.7775 -75.2181 88° East 118 136 7,100  Level Boston Center
Tue 06:15:07 PM 43.7908 -75.1897 57° Northeast 121 139 7,100  Level Boston Center
Tue 06:15:38 PM 43.7933 -75.1756 76° East 118 136 7,100  Level Boston Center
Tue 06:16:38 PM 43.8067 -75.1300 68° East 113 130 7,100  Level Boston Center
Tue 06:17:38 PM 43.8203 -75.0875 66° East 113 130 7,100  Level Boston Center
Tue 06:18:38 PM 43.8339 -75.0450 66° East 113 130 7,100 50 Level Boston Center
Tue 06:19:38 PM 43.8472 -75.0053 65° Northeast 113 130 7,200  Climbing Boston Center
Tue 06:20:38 PM 43.8628 -74.9628 63° Northeast 113 130 7,100 -50 Descending Boston Center
Tue 06:21:38 PM 43.8761 -74.9258 63° Northeast 113 130 7,100  Level Boston Center
Tue 06:22:38 PM 43.8914 -74.8861 62° Northeast 113 130 7,100 150 Level Boston Center
Tue 06:23:38 PM 43.9047 -74.8519 62° Northeast 108 124 7,400 250 Climbing Boston Center
Tue 06:24:38 PM 43.9158 -74.8178 66° East 103 119 7,600 300 Climbing Boston Center
Tue 06:25:38 PM 43.9250 -74.7808 71° East 103 119 8,000 350 Climbing Boston Center
Tue 06:26:38 PM 43.9400 -74.7525 54° Northeast 92 106 8,300 300 Climbing Boston Center
Tue 06:27:38 PM 43.9511 -74.7211 64° Northeast 92 106 8,600 300 Climbing Boston Center
Tue 06:28:38 PM 43.9642 -74.6869 62° Northeast 92 106 8,900 200 Climbing Boston Center
Tue 06:29:38 PM 43.9753 -74.6528 66° East 92 106 9,000 50 Climbing Boston Center
Tue 06:30:38 PM 43.9844 -74.6128 72° East 98 113 9,000  Level Boston Center
Tue 06:31:38 PM 43.9997 -74.5731 62° Northeast 103 119 9,000  Level Boston Center
Tue 06:32:38 PM 44.0131 -74.5331 65° Northeast 108 124 9,000  Level Boston Center
Tue 06:33:38 PM 44.0242 -74.4931 69° East 113 130 9,000 50 Level Boston Center
Tue 06:34:38 PM 44.0375 -74.4500 67° East 113 130 9,100 50 Climbing Boston Center
Tue 06:35:38 PM 44.0528 -74.4103 62° Northeast 113 130 9,100 50 Level Boston Center
Tue 06:36:38 PM 44.0681 -74.3731 60° Northeast 113 130 9,200 50 Climbing Boston Center
Tue 06:37:38 PM 44.0853 -74.3389 55° Northeast 113 130 9,200 100 Level Boston Center
Tue 06:38:38 PM 44.0983 -74.3017 64° Northeast 108 124 9,400 300 Climbing Boston Center
Tue 06:39:38 PM 44.1175 -74.2792 40° Northeast 102 117 9,800 300 Climbing Boston Center
Tue 06:40:38 PM 44.1242 -74.2447 75° East 89 102 10,000 150 Climbing Boston Center
Tue 06:41:38 PM 44.1331 -74.2103 70° East 89 102 10,100 50 Climbing Boston Center
Tue 06:42:38 PM 44.1442 -74.1672 70° East 96 110 10,100  Level Boston Center
Tue 06:43:38 PM 44.1572 -74.1300 64° Northeast 102 117 10,100  Level Boston Center
Tue 06:44:38 PM 44.1764 -74.0931 54° Northeast 107 123 10,100  Level Boston Center
Tue 06:45:38 PM 44.1936 -74.0586 55° Northeast 112 129 10,100 -150 Level Boston Center
Tue 06:46:38 PM 44.2067 -74.0272 60° Northeast 107 123 9,800 -550 Descending Boston Center
Tue 06:47:38 PM 44.2175 -73.9869 69° East 107 123 9,000 -850 Descending Boston Center
Tue 06:48:38 PM 44.2244 -73.9464 77° East 101 116 8,100 -650 Descending Boston Center
Tue 06:49:38 PM 44.2353 -73.9064 69° East 101 116 7,700 -400 Descending Boston Center
Tue 06:50:38 PM 44.2483 -73.8689 64° Northeast 106 122 7,300 -300 Descending Boston Center
Tue 06:51:38 PM 44.2611 -73.8314 65° Northeast 106 122 7,100 -100 Descending Boston Center
Tue 06:52:38 PM 44.2742 -73.7911 66° East 106 122 7,100 -267 Level Boston Center
Tue 06:54:00 PM 44.2903 -73.7294 70° East  Level FlightAware Approximate
Tue 06:54:38 PM 44.3003 -73.7047 70° East 111 128 6,300  Level Boston Center
Tue 06:55:38 PM 44.3131 -73.6644 66° East 111 128 5,900 -400 Descending Boston Center
Tue 06:57:00 PM 44.3272 -73.6017 73° East  Level FlightAware Approximate
Tue 07:04:00 PM 44.4152 -73.2877 65° Northeast  Level FlightAware Approximate
Tue 07:05:00 PM 44.4298 -73.2441 65° Northeast  Level FlightAware Approximate
Tue 07:06:00 PM 44.4460 -73.2016 61° Northeast  Level FlightAware Approximate
Tue 07:07:00 PM 44.4628 -73.1596 61° Northeast  Level FlightAware Approximate
Tue 07:08:00 PM 44.4667 -73.1500 61° Northeast  Level FlightAware Approximate
Tue 07:09:00 PM 44.4719 -73.1533 61° Northeast  Level Estimated
Tue 07:10:00 PM 44.4667 -73.1500 61° Northeast  Level FlightAware Approximate
Tue 07:11:00 PM 44.4719 -73.1533 61° Northeast  Level Estimated
Tue 07:12:00 PM 44.4667 -73.1500 61° Northeast  Level FlightAware Approximate
Tue 07:13:00 PM 44.4719 -73.1533 61° Northeast  Level Estimated
Tue 07:14:00 PM 44.4667 -73.1500 61° Northeast  Level FlightAware Approximate
Tue 07:15:00 PM 44.4719 -73.1533 61° Northeast  Level Estimated

Login

Don't have an account? Register now (free) for customized features, flight alerts, and more!